createdAt,value
2023-02-18T00:01:42.272Z,2.00
2023-02-18T00:04:10.394Z,1.90
2023-02-18T00:06:41.065Z,1.90
2023-02-18T00:09:09.408Z,2.00
2023-02-18T00:11:38.974Z,2.00
2023-02-18T00:14:14.203Z,1.80
2023-02-18T00:16:44.401Z,2.10
2023-02-18T00:19:17.872Z,2.10
2023-02-18T00:21:48.439Z,2.00
2023-02-18T00:24:17.232Z,2.50
2023-02-18T00:26:46.419Z,2.00
2023-02-18T00:29:14.553Z,2.10
2023-02-18T00:31:42.952Z,1.90
2023-02-18T00:34:13.341Z,2.00
2023-02-18T00:36:42.410Z,2.20
2023-02-18T00:39:12.559Z,2.10
2023-02-18T00:41:42.021Z,2.20
2023-02-18T00:44:11.709Z,2.00
2023-02-18T00:46:40.034Z,2.30
2023-02-18T00:49:09.121Z,2.10
2023-02-18T00:51:37.244Z,2.10
2023-02-18T00:54:05.457Z,2.60
2023-02-18T00:56:33.762Z,2.30
2023-02-18T00:59:02.021Z,2.10
2023-02-18T01:01:30.405Z,2.10
2023-02-18T01:03:58.994Z,2.10
2023-02-18T01:06:27.233Z,2.50
2023-02-18T01:08:55.328Z,2.40
2023-02-18T01:11:23.381Z,2.30
2023-02-18T01:13:52.558Z,2.30
2023-02-18T01:16:20.797Z,2.50
2023-02-18T01:18:48.949Z,2.30
2023-02-18T01:21:17.635Z,2.60
2023-02-18T01:23:45.598Z,2.50
2023-02-18T01:26:17.229Z,2.10
2023-02-18T01:28:45.530Z,2.60
2023-02-18T01:31:15.104Z,2.50
2023-02-18T01:33:44.202Z,2.40
2023-02-18T01:36:12.683Z,2.60
2023-02-18T01:38:41.320Z,2.50
2023-02-18T01:41:10.759Z,2.40
2023-02-18T01:43:39.803Z,2.60
2023-02-18T01:46:22.779Z,2.20
2023-02-18T01:48:58.659Z,2.40
2023-02-18T01:51:41.172Z,2.20
2023-02-18T01:54:17.126Z,2.50
2023-02-18T01:57:10.720Z,2.40
2023-02-18T01:59:40.026Z,2.40
2023-02-18T02:02:14.267Z,2.50
2023-02-18T02:04:43.001Z,2.30
2023-02-18T02:07:11.464Z,2.20
2023-02-18T02:09:41.300Z,2.50
2023-02-18T02:12:33.855Z,2.60
2023-02-18T02:15:34.007Z,2.10
2023-02-18T02:18:31.433Z,1.90
2023-02-18T02:21:39.223Z,2.30
2023-02-18T02:24:51.555Z,2.10
2023-02-18T02:28:11.073Z,2.30
2023-02-18T02:31:04.186Z,2.20
2023-02-18T02:34:13.932Z,1.90
2023-02-18T02:37:13.265Z,2.40
2023-02-18T02:40:30.563Z,2.10
2023-02-18T02:43:16.366Z,2.30
2023-02-18T02:46:09.822Z,2.50
2023-02-18T02:49:29.011Z,2.30
2023-02-18T02:52:08.734Z,2.30
2023-02-18T02:54:36.975Z,2.00
2023-02-18T02:57:28.330Z,2.30
2023-02-18T03:00:10.805Z,1.90
2023-02-18T03:03:39.108Z,2.30
2023-02-18T03:06:56.757Z,2.20
2023-02-18T03:09:57.590Z,2.00
2023-02-18T03:13:15.578Z,2.10
2023-02-18T03:15:46.996Z,2.30
2023-02-18T03:18:29.353Z,2.10
2023-02-18T03:21:15.184Z,2.20
2023-02-18T03:23:56.486Z,1.90
2023-02-18T03:26:28.688Z,2.20
2023-02-18T03:29:03.891Z,2.10
2023-02-18T03:31:36.176Z,2.50
2023-02-18T03:34:15.591Z,2.30
2023-02-18T03:36:45.033Z,1.80
2023-02-18T03:39:18.790Z,2.10
2023-02-18T03:41:48.825Z,1.90
2023-02-18T03:44:16.782Z,2.40
2023-02-18T03:46:45.762Z,2.10
2023-02-18T03:49:15.794Z,2.00
2023-02-18T03:51:44.377Z,2.10
2023-02-18T03:54:14.675Z,2.00
2023-02-18T03:56:43.898Z,2.00
2023-02-18T03:59:13.313Z,2.10
2023-02-18T04:01:41.674Z,2.00
2023-02-18T04:04:09.769Z,2.00
2023-02-18T04:06:38.027Z,2.30
2023-02-18T04:09:09.230Z,1.90
2023-02-18T04:11:41.186Z,1.90
2023-02-18T04:14:14.532Z,2.20
2023-02-18T04:16:42.711Z,2.20
2023-02-18T04:19:11.102Z,2.00
2023-02-18T04:21:39.251Z,1.70
2023-02-18T04:24:07.331Z,1.80
2023-02-18T04:26:35.438Z,2.00
2023-02-18T04:29:03.978Z,2.10
2023-02-18T04:31:31.985Z,1.90
2023-02-18T04:34:00.189Z,2.10
2023-02-18T04:36:28.227Z,2.00
2023-02-18T04:38:56.169Z,2.00
2023-02-18T04:41:24.138Z,1.90
2023-02-18T04:43:52.398Z,1.90
2023-02-18T04:46:20.664Z,2.00
2023-02-18T04:48:48.590Z,1.90
2023-02-18T04:51:16.738Z,2.00
2023-02-18T04:53:44.701Z,1.70
2023-02-18T04:56:12.895Z,1.70
2023-02-18T04:58:41.252Z,2.10
2023-02-18T05:01:09.472Z,2.00
2023-02-18T05:03:37.420Z,2.10
2023-02-18T05:06:06.374Z,2.00
2023-02-18T05:08:34.581Z,1.90
2023-02-18T05:11:07.637Z,2.00
2023-02-18T05:13:36.168Z,2.00
2023-02-18T05:16:04.528Z,1.70
2023-02-18T05:18:32.568Z,1.90
2023-02-18T05:21:01.059Z,2.20
2023-02-18T05:23:29.009Z,1.70
2023-02-18T05:25:57.018Z,1.80
2023-02-18T05:28:26.037Z,2.00
2023-02-18T05:30:55.064Z,1.90
2023-02-18T05:33:23.138Z,1.60
2023-02-18T05:35:51.369Z,1.90
2023-02-18T05:38:19.275Z,1.80
2023-02-18T05:40:47.933Z,1.90
2023-02-18T05:43:16.347Z,1.80
2023-02-18T05:45:44.459Z,1.70
2023-02-18T05:48:12.541Z,1.70
2023-02-18T05:50:40.490Z,1.70
2023-02-18T05:53:08.472Z,1.70
2023-02-18T05:55:39.362Z,2.00
2023-02-18T05:58:08.101Z,1.60
2023-02-18T06:00:36.447Z,1.80
2023-02-18T06:03:05.580Z,1.80
2023-02-18T06:05:34.165Z,2.00
2023-02-18T06:08:02.216Z,1.80
2023-02-18T06:10:30.115Z,1.90
2023-02-18T06:12:58.370Z,1.70
2023-02-18T06:15:26.310Z,1.70
2023-02-18T06:17:54.401Z,2.00
2023-02-18T06:20:22.482Z,2.00
2023-02-18T06:22:50.885Z,1.40
2023-02-18T06:25:19.440Z,1.90
2023-02-18T06:27:47.412Z,2.40
2023-02-18T06:30:15.504Z,1.70
2023-02-18T06:32:43.661Z,1.80
2023-02-18T06:35:11.741Z,2.00
2023-02-18T06:37:39.834Z,2.00
2023-02-18T06:40:08.991Z,1.90
2023-02-18T06:42:37.191Z,1.80
2023-02-18T06:45:06.871Z,1.60
2023-02-18T06:47:35.251Z,2.00
2023-02-18T06:50:04.618Z,1.70
2023-02-18T06:52:34.669Z,1.70
2023-02-18T06:55:02.600Z,1.70
2023-02-18T06:57:30.617Z,1.70
2023-02-18T06:59:58.762Z,1.90
2023-02-18T07:02:26.957Z,1.80
2023-02-18T07:04:55.356Z,1.90
2023-02-18T07:07:23.447Z,1.60
2023-02-18T07:09:51.596Z,1.90
2023-02-18T07:12:19.506Z,1.80
2023-02-18T07:14:47.520Z,1.90
2023-02-18T07:17:15.504Z,1.90
2023-02-18T07:19:43.580Z,2.20
2023-02-18T07:22:11.849Z,2.00
2023-02-18T07:24:40.022Z,2.30
2023-02-18T07:27:08.596Z,2.50
2023-02-18T07:29:36.630Z,2.80
2023-02-18T07:32:05.510Z,2.80
2023-02-18T07:34:33.763Z,3.20
2023-02-18T07:37:01.909Z,3.20
2023-02-18T07:39:29.870Z,3.40
2023-02-18T07:41:58.054Z,3.10
2023-02-18T07:44:27.805Z,4.10
2023-02-18T07:46:55.926Z,3.60
2023-02-18T07:49:23.943Z,3.90
2023-02-18T07:51:52.292Z,4.00
2023-02-18T07:54:20.681Z,4.30
2023-02-18T07:56:49.043Z,3.90
2023-02-18T07:59:17.974Z,4.20
2023-02-18T08:01:46.145Z,4.40
2023-02-18T08:04:15.391Z,4.30
2023-02-18T08:06:47.916Z,3.90
2023-02-18T08:09:18.031Z,3.90
2023-02-18T08:11:46.078Z,4.40
2023-02-18T08:14:14.149Z,4.40
2023-02-18T08:16:42.432Z,4.20
2023-02-18T08:19:10.810Z,4.80
2023-02-18T08:21:40.221Z,5.10
2023-02-18T08:24:08.903Z,5.60
2023-02-18T08:26:37.472Z,5.10
2023-02-18T08:29:05.823Z,5.10
2023-02-18T08:31:35.099Z,5.00
2023-02-18T08:34:04.258Z,5.50
2023-02-18T08:36:32.593Z,5.70
2023-02-18T08:39:00.627Z,5.30
2023-02-18T08:41:29.179Z,5.20
2023-02-18T08:43:57.259Z,4.60
2023-02-18T08:46:33.481Z,4.60
2023-02-18T08:49:06.052Z,5.30
2023-02-18T08:51:35.936Z,5.00
2023-02-18T08:54:04.831Z,5.20
2023-02-18T08:56:33.975Z,5.30
2023-02-18T08:59:02.493Z,5.10
2023-02-18T09:01:30.710Z,5.20
2023-02-18T09:03:59.297Z,4.90
2023-02-18T09:06:27.953Z,4.90
2023-02-18T09:08:56.523Z,4.90
2023-02-18T09:11:24.810Z,5.00
2023-02-18T09:13:53.379Z,5.00
2023-02-18T09:16:24.414Z,5.40
2023-02-18T09:18:53.703Z,4.90
2023-02-18T09:21:23.519Z,4.40
2023-02-18T09:23:55.287Z,4.90
2023-02-18T09:26:25.171Z,4.80
2023-02-18T09:28:56.720Z,4.60
2023-02-18T09:31:28.828Z,5.30
2023-02-18T09:34:02.838Z,5.50
2023-02-18T09:36:33.873Z,5.60
2023-02-18T09:39:03.425Z,4.90
2023-02-18T09:41:51.847Z,4.70
2023-02-18T09:44:47.953Z,4.90
2023-02-18T09:47:38.137Z,4.50
2023-02-18T09:50:27.733Z,4.50
2023-02-18T09:52:59.349Z,4.50
2023-02-18T09:55:41.593Z,4.60
2023-02-18T09:58:20.824Z,4.40
2023-02-18T10:00:57.945Z,4.60
2023-02-18T10:03:30.371Z,4.10
2023-02-18T10:06:07.619Z,4.20
2023-02-18T10:08:43.327Z,4.00
2023-02-18T10:11:25.347Z,4.40
2023-02-18T10:13:55.223Z,4.30
2023-02-18T10:16:27.026Z,4.50
2023-02-18T10:19:04.282Z,4.20
2023-02-18T10:21:38.612Z,3.90
2023-02-18T10:24:29.776Z,4.90
2023-02-18T10:26:59.108Z,4.20
2023-02-18T10:29:29.377Z,4.40
2023-02-18T10:32:07.792Z,4.30
2023-02-18T10:34:43.456Z,3.60
2023-02-18T10:37:32.768Z,3.40
2023-02-18T10:40:46.606Z,3.80
2023-02-18T10:44:01.580Z,3.90
2023-02-18T10:46:49.057Z,4.30
2023-02-18T10:49:42.305Z,4.30
2023-02-18T10:52:19.070Z,4.00
2023-02-18T10:55:10.562Z,4.30
2023-02-18T10:57:55.206Z,4.10
2023-02-18T11:00:27.350Z,3.80
2023-02-18T11:03:20.862Z,3.70
2023-02-18T11:05:54.970Z,3.30
2023-02-18T11:08:33.486Z,3.70
2023-02-18T11:11:21.117Z,3.50
2023-02-18T11:13:59.683Z,3.50
2023-02-18T11:17:10.585Z,3.30
2023-02-18T11:19:40.877Z,3.80
2023-02-18T11:22:13.848Z,3.50
2023-02-18T11:24:48.464Z,3.10
2023-02-18T11:27:40.735Z,3.40
2023-02-18T11:30:38.899Z,3.30
2023-02-18T11:33:18.813Z,3.30
2023-02-18T11:35:59.095Z,3.30
2023-02-18T11:38:38.782Z,3.30
2023-02-18T11:41:20.202Z,3.00
2023-02-18T11:43:53.264Z,3.20
2023-02-18T11:46:27.737Z,3.00
2023-02-18T11:48:56.247Z,3.00
2023-02-18T11:51:39.013Z,3.20
2023-02-18T11:54:31.886Z,2.90
2023-02-18T11:57:13.521Z,3.10
2023-02-18T11:59:43.311Z,3.20
2023-02-18T12:02:11.192Z,2.90
2023-02-18T12:04:48.684Z,2.70
2023-02-18T12:08:02.082Z,3.10
2023-02-18T12:10:48.088Z,3.10
2023-02-18T12:13:50.741Z,3.00
2023-02-18T12:16:54.245Z,2.40
2023-02-18T12:20:26.005Z,2.40
2023-02-18T12:23:25.466Z,3.00
2023-02-18T12:26:02.397Z,3.00
2023-02-18T12:28:49.423Z,2.50
2023-02-18T12:31:39.279Z,2.70
2023-02-18T12:34:21.526Z,2.70
2023-02-18T12:37:20.298Z,2.80
2023-02-18T12:40:03.722Z,3.00
2023-02-18T12:43:02.907Z,2.60
2023-02-18T12:45:45.552Z,2.60
2023-02-18T12:49:03.654Z,2.60
2023-02-18T12:51:47.954Z,2.50
2023-02-18T12:55:11.792Z,2.50
2023-02-18T12:57:54.016Z,2.10
2023-02-18T13:00:46.154Z,2.60
2023-02-18T13:03:39.114Z,2.30
2023-02-18T13:06:34.099Z,2.30
2023-02-18T13:09:45.338Z,2.70
2023-02-18T13:12:38.458Z,2.50
2023-02-18T13:15:38.888Z,2.50
2023-02-18T13:18:48.042Z,2.30
2023-02-18T13:21:17.141Z,2.50
2023-02-18T13:23:58.738Z,2.30
2023-02-18T13:26:31.459Z,2.50
2023-02-18T13:29:34.986Z,2.20
2023-02-18T13:32:18.481Z,2.40
2023-02-18T13:35:00.868Z,2.20
2023-02-18T13:37:53.577Z,2.20
2023-02-18T13:40:30.260Z,2.50
2023-02-18T13:43:37.353Z,2.40
2023-02-18T13:46:19.039Z,2.70
2023-02-18T13:49:07.383Z,2.50
2023-02-18T13:51:48.639Z,2.70
2023-02-18T13:54:29.778Z,2.20
2023-02-18T13:57:12.740Z,2.40
2023-02-18T14:00:04.229Z,2.40
2023-02-18T14:02:36.999Z,2.50
2023-02-18T14:05:08.719Z,2.30
2023-02-18T14:07:36.873Z,2.40
2023-02-18T14:10:31.102Z,2.60
2023-02-18T14:12:59.929Z,2.30
2023-02-18T14:15:28.163Z,2.60
2023-02-18T14:17:59.199Z,2.60
2023-02-18T14:20:39.272Z,2.50
2023-02-18T14:23:13.736Z,2.40
2023-02-18T14:25:42.485Z,2.50
2023-02-18T14:28:36.381Z,2.40
2023-02-18T14:31:13.992Z,2.40
2023-02-18T14:34:24.279Z,2.50
2023-02-18T14:37:29.622Z,2.20
2023-02-18T14:40:30.460Z,2.60
2023-02-18T14:43:07.491Z,2.40
2023-02-18T14:46:04.327Z,2.90
2023-02-18T14:49:11.659Z,2.30
2023-02-18T14:51:43.585Z,2.30
2023-02-18T14:54:18.301Z,2.40
2023-02-18T14:57:09.595Z,2.10
2023-02-18T14:59:43.397Z,2.40
2023-02-18T15:02:27.513Z,2.80
2023-02-18T15:05:12.929Z,2.50
2023-02-18T15:10:16.144Z,2.10
2023-02-18T15:12:44.210Z,2.10
2023-02-18T15:15:16.217Z,2.60
2023-02-18T15:17:48.586Z,2.40
2023-02-18T15:20:17.780Z,2.20
2023-02-18T15:22:46.125Z,2.50
2023-02-18T15:25:16.377Z,2.50
2023-02-18T15:27:47.181Z,2.40
2023-02-18T15:30:21.761Z,2.40
2023-02-18T15:33:03.899Z,2.60
2023-02-18T15:35:33.376Z,2.50
2023-02-18T15:38:02.402Z,2.60
2023-02-18T15:40:36.105Z,2.30
2023-02-18T15:43:06.197Z,2.30
2023-02-18T15:45:46.799Z,2.70
2023-02-18T15:48:45.493Z,2.60
2023-02-18T15:51:22.493Z,2.20
2023-02-18T15:53:56.997Z,2.20
2023-02-18T15:56:36.994Z,2.40
2023-02-18T15:59:35.250Z,2.50
2023-02-18T16:02:09.187Z,2.40
2023-02-18T16:04:41.622Z,2.30
2023-02-18T16:07:32.613Z,2.50
2023-02-18T16:10:33.469Z,2.20
2023-02-18T16:13:03.785Z,2.40
2023-02-18T16:15:44.286Z,2.40
2023-02-18T16:18:26.539Z,2.10
2023-02-18T16:21:23.217Z,2.00
2023-02-18T16:24:01.758Z,2.20
2023-02-18T16:26:38.671Z,2.30
2023-02-18T16:29:37.174Z,2.30
2023-02-18T16:32:05.444Z,2.10
2023-02-18T16:34:35.864Z,2.30
2023-02-18T16:37:23.087Z,2.50
2023-02-18T16:39:54.960Z,2.40
2023-02-18T16:42:22.943Z,2.30
2023-02-18T16:44:52.215Z,2.20
2023-02-18T16:47:20.913Z,2.00
2023-02-18T16:49:51.734Z,2.20
2023-02-18T16:52:20.141Z,2.30
2023-02-18T16:54:48.744Z,2.40
2023-02-18T16:57:16.874Z,2.20
2023-02-18T16:59:45.048Z,2.40
2023-02-18T17:02:32.605Z,2.30
2023-02-18T17:05:00.960Z,1.90
2023-02-18T17:07:32.847Z,2.60
2023-02-18T17:10:00.891Z,2.30
2023-02-18T17:12:29.167Z,2.20
2023-02-18T17:14:57.082Z,2.50
2023-02-18T17:17:25.208Z,2.30
2023-02-18T17:19:53.589Z,2.50
2023-02-18T17:22:21.489Z,2.30
2023-02-18T17:24:49.423Z,2.50
2023-02-18T17:27:17.369Z,2.40
2023-02-18T17:29:45.241Z,2.30
2023-02-18T17:32:14.217Z,2.50
2023-02-18T17:34:42.326Z,2.40
2023-02-18T17:37:13.682Z,2.80
2023-02-18T17:39:41.747Z,2.40
2023-02-18T17:42:12.178Z,2.40
2023-02-18T17:44:42.168Z,2.70
2023-02-18T17:47:11.499Z,2.60
2023-02-18T17:49:40.290Z,2.70
2023-02-18T17:52:33.984Z,2.30
2023-02-18T17:55:19.781Z,2.30
2023-02-18T17:57:53.124Z,2.60
2023-02-18T18:00:27.666Z,2.70
2023-02-18T18:05:35.103Z,3.00
2023-02-18T18:08:05.145Z,2.80
2023-02-18T18:10:39.157Z,2.90
2023-02-18T18:13:25.191Z,2.90
2023-02-18T18:15:56.851Z,3.10
2023-02-18T18:18:27.751Z,3.00
2023-02-18T18:21:01.295Z,2.80
2023-02-18T18:23:32.914Z,2.90
2023-02-18T18:26:01.727Z,2.80
2023-02-18T18:28:32.958Z,3.00
2023-02-18T18:31:02.251Z,2.80
2023-02-18T18:33:34.675Z,2.90
2023-02-18T18:36:03.234Z,2.80
2023-02-18T18:38:31.158Z,3.10
2023-02-18T18:41:00.029Z,2.90
2023-02-18T18:43:33.157Z,2.80
2023-02-18T18:46:01.300Z,3.00
2023-02-18T18:48:29.947Z,3.20
2023-02-18T18:51:00.609Z,2.90
2023-02-18T18:53:32.582Z,2.90
2023-02-18T18:56:08.353Z,2.90
2023-02-18T18:58:36.686Z,3.00
2023-02-18T19:01:13.085Z,2.80
2023-02-18T19:03:42.650Z,2.60
2023-02-18T19:06:12.288Z,2.70
2023-02-18T19:08:40.629Z,2.60
2023-02-18T19:11:12.959Z,2.50
2023-02-18T19:13:42.421Z,2.90
2023-02-18T19:16:39.157Z,2.90
2023-02-18T19:19:11.981Z,2.80
2023-02-18T19:21:42.980Z,2.80
2023-02-18T19:24:11.456Z,2.50
2023-02-18T19:26:40.458Z,3.00
2023-02-18T19:29:08.821Z,2.70
2023-02-18T19:31:37.126Z,2.90
2023-02-18T19:34:05.274Z,2.60
2023-02-18T19:36:33.169Z,2.70
2023-02-18T19:39:01.097Z,3.00
2023-02-18T19:41:29.299Z,2.60
2023-02-18T19:43:58.181Z,2.90
2023-02-18T19:46:26.174Z,2.90
2023-02-18T19:48:54.535Z,2.70
2023-02-18T19:51:23.317Z,3.00
2023-02-18T19:53:51.266Z,2.90
2023-02-18T19:56:19.248Z,2.90
2023-02-18T19:58:47.443Z,3.30
2023-02-18T20:01:18.361Z,3.10
2023-02-18T20:03:47.312Z,3.10
2023-02-18T20:06:18.530Z,3.00
2023-02-18T20:08:47.627Z,3.00
2023-02-18T20:11:15.748Z,3.20
2023-02-18T20:13:44.053Z,3.00
2023-02-18T20:16:12.409Z,3.30
2023-02-18T20:18:40.726Z,3.20
2023-02-18T20:21:12.143Z,3.10
2023-02-18T20:23:41.851Z,3.50
2023-02-18T20:26:13.225Z,3.10
2023-02-18T20:28:42.024Z,3.50
2023-02-18T20:31:13.443Z,3.10
2023-02-18T20:33:43.170Z,3.20
2023-02-18T20:36:13.985Z,3.10
2023-02-18T20:38:42.675Z,3.20
2023-02-18T20:41:17.788Z,3.00
2023-02-18T20:43:46.831Z,3.50
2023-02-18T20:46:21.117Z,3.10
2023-02-18T20:48:49.548Z,3.30
2023-02-18T20:51:21.574Z,3.60
2023-02-18T20:53:50.927Z,3.40
2023-02-18T20:56:21.781Z,3.40
2023-02-18T20:58:50.514Z,3.20
2023-02-18T21:01:19.957Z,3.10
2023-02-18T21:03:49.579Z,3.50
2023-02-18T21:06:21.518Z,3.50
2023-02-18T21:08:54.907Z,2.90
2023-02-18T21:11:27.185Z,3.30
2023-02-18T21:13:57.103Z,3.10
2023-02-18T21:16:28.691Z,3.30
2023-02-18T21:18:57.112Z,2.90
2023-02-18T21:21:27.142Z,3.30
2023-02-18T21:23:55.430Z,3.30
2023-02-18T21:26:27.310Z,3.30
2023-02-18T21:29:00.947Z,3.40
2023-02-18T21:31:40.045Z,3.00
2023-02-18T21:34:13.488Z,3.10
2023-02-18T21:36:43.466Z,3.10
2023-02-18T21:39:11.994Z,2.90
2023-02-18T21:41:41.296Z,3.00
2023-02-18T21:44:10.386Z,2.90
2023-02-18T21:46:39.848Z,3.30
2023-02-18T21:49:12.545Z,3.50
2023-02-18T21:51:58.055Z,3.70
2023-02-18T21:54:37.121Z,4.00
2023-02-18T21:57:09.630Z,4.20
2023-02-18T21:59:38.431Z,4.00
2023-02-18T22:02:12.893Z,4.30
2023-02-18T22:04:41.151Z,3.90
2023-02-18T22:07:09.036Z,3.60
2023-02-18T22:09:37.686Z,3.90
2023-02-18T22:12:07.108Z,3.80
2023-02-18T22:14:35.096Z,4.00
2023-02-18T22:17:03.696Z,4.10
2023-02-18T22:19:32.351Z,3.90
2023-02-18T22:22:02.760Z,4.20
2023-02-18T22:24:32.137Z,4.00
2023-02-18T22:27:01.727Z,4.20
2023-02-18T22:29:31.998Z,4.40
2023-02-18T22:32:00.535Z,4.10
2023-02-18T22:34:28.773Z,4.10
2023-02-18T22:36:56.798Z,4.60
2023-02-18T22:39:24.886Z,4.30
2023-02-18T22:41:52.978Z,4.30
2023-02-18T22:44:20.959Z,4.30
2023-02-18T22:46:50.233Z,4.30
2023-02-18T22:49:18.414Z,4.80
2023-02-18T22:51:46.350Z,4.10
2023-02-18T22:54:18.994Z,4.40
2023-02-18T22:56:48.375Z,4.40
2023-02-18T22:59:18.576Z,4.10
2023-02-18T23:01:49.811Z,4.30
2023-02-18T23:04:20.030Z,4.20
2023-02-18T23:06:49.852Z,4.40
2023-02-18T23:09:23.116Z,3.60
2023-02-18T23:11:55.028Z,3.70
2023-02-18T23:14:23.318Z,3.80
2023-02-18T23:17:13.333Z,3.60
2023-02-18T23:19:51.601Z,3.20
2023-02-18T23:22:35.962Z,3.60
2023-02-18T23:25:05.406Z,3.60
2023-02-18T23:27:33.438Z,3.60
2023-02-18T23:30:01.426Z,3.30
2023-02-18T23:32:30.903Z,3.00
2023-02-18T23:34:58.910Z,3.60
2023-02-18T23:37:45.577Z,2.80
2023-02-18T23:40:14.958Z,3.00
2023-02-18T23:42:43.061Z,3.00
2023-02-18T23:45:11.133Z,3.00
2023-02-18T23:47:39.079Z,3.00
2023-02-18T23:50:07.476Z,3.00
2023-02-18T23:52:35.599Z,2.90
2023-02-18T23:55:03.758Z,2.80
2023-02-18T23:57:32.784Z,2.60
